sensor_id;sensor_type;location;lat;lon;timestamp;pressure;altitude;pressure_sealevel;temperature;humidity
70815;BME280;58428;49.478;10.986;2022-07-01T00:01:44;98089.28;;;22.19;61.60
70815;BME280;58428;49.478;10.986;2022-07-01T00:04:10;98088.84;;;22.24;61.30
70815;BME280;58428;49.478;10.986;2022-07-01T00:06:36;98094.28;;;21.87;64.02
70815;BME280;58428;49.478;10.986;2022-07-01T00:09:02;98097.31;;;22.00;62.46
70815;BME280;58428;49.478;10.986;2022-07-01T00:11:30;98088.56;;;22.08;62.35
70815;BME280;58428;49.478;10.986;2022-07-01T00:13:57;98089.16;;;22.29;61.16
70815;BME280;58428;49.478;10.986;2022-07-01T00:16:23;98101.03;;;21.79;64.14
70815;BME280;58428;49.478;10.986;2022-07-01T00:18:48;98110.84;;;21.84;63.92
70815;BME280;58428;49.478;10.986;2022-07-01T00:21:13;98108.84;;;21.84;63.05
70815;BME280;58428;49.478;10.986;2022-07-01T00:23:40;98106.94;;;21.81;63.46
70815;BME280;58428;49.478;10.986;2022-07-01T00:26:05;98109.31;;;21.76;63.37
70815;BME280;58428;49.478;10.986;2022-07-01T00:28:30;98118.38;;;21.77;63.36
70815;BME280;58428;49.478;10.986;2022-07-01T00:30:56;98121.94;;;21.74;63.61
70815;BME280;58428;49.478;10.986;2022-07-01T00:33:21;98120.06;;;21.60;63.98
70815;BME280;58428;49.478;10.986;2022-07-01T00:35:46;98133.50;;;21.51;65.07
70815;BME280;58428;49.478;10.986;2022-07-01T00:38:12;98139.78;;;21.52;65.01
70815;BME280;58428;49.478;10.986;2022-07-01T00:40:37;98140.59;;;21.52;64.14
70815;BME280;58428;49.478;10.986;2022-07-01T00:43:03;98145.28;;;21.55;63.60
70815;BME280;58428;49.478;10.986;2022-07-01T00:45:28;98157.53;;;21.41;64.68
70815;BME280;58428;49.478;10.986;2022-07-01T00:47:53;98164.22;;;21.36;65.11
70815;BME280;58428;49.478;10.986;2022-07-01T00:50:19;98183.56;;;21.22;65.11
70815;BME280;58428;49.478;10.986;2022-07-01T00:52:45;98206.75;;;21.21;65.71
70815;BME280;58428;49.478;10.986;2022-07-01T00:55:13;98211.84;;;21.30;64.79
70815;BME280;58428;49.478;10.986;2022-07-01T00:57:40;98218.97;;;21.17;65.89
70815;BME280;58428;49.478;10.986;2022-07-01T01:00:14;98230.78;;;21.07;65.39
70815;BME280;58428;49.478;10.986;2022-07-01T01:02:40;98217.81;;;21.07;65.16
70815;BME280;58428;49.478;10.986;2022-07-01T01:05:07;98212.34;;;21.04;65.29
70815;BME280;58428;49.478;10.986;2022-07-01T01:07:34;98203.34;;;20.93;65.13
70815;BME280;58428;49.478;10.986;2022-07-01T01:10:00;98204.16;;;20.83;65.35
70815;BME280;58428;49.478;10.986;2022-07-01T01:12:27;98206.50;;;20.85;65.19
70815;BME280;58428;49.478;10.986;2022-07-01T01:14:52;98207.31;;;20.75;65.04
70815;BME280;58428;49.478;10.986;2022-07-01T01:17:19;98228.94;;;20.69;64.78
70815;BME280;58428;49.478;10.986;2022-07-01T01:19:48;98234.00;;;20.57;65.10
70815;BME280;58428;49.478;10.986;2022-07-01T01:22:17;98243.47;;;20.11;66.75
70815;BME280;58428;49.478;10.986;2022-07-01T01:24:44;98237.16;;;19.90;67.11
70815;BME280;58428;49.478;10.986;2022-07-01T01:27:09;98225.00;;;19.91;66.70
70815;BME280;58428;49.478;10.986;2022-07-01T01:29:36;98221.78;;;19.72;67.24
70815;BME280;58428;49.478;10.986;2022-07-01T01:32:02;98198.72;;;19.90;66.16
70815;BME280;58428;49.478;10.986;2022-07-01T01:34:28;98187.72;;;19.87;66.45
70815;BME280;58428;49.478;10.986;2022-07-01T01:36:53;98197.53;;;20.08;65.80
70815;BME280;58428;49.478;10.986;2022-07-01T01:39:19;98195.97;;;20.18;65.11
70815;BME280;58428;49.478;10.986;2022-07-01T01:41:45;98203.03;;;20.29;64.40
70815;BME280;58428;49.478;10.986;2022-07-01T01:44:11;98202.66;;;20.30;64.53
70815;BME280;58428;49.478;10.986;2022-07-01T01:46:36;98199.50;;;20.39;63.96
70815;BME280;58428;49.478;10.986;2022-07-01T01:49:03;98201.47;;;20.18;64.80
70815;BME280;58428;49.478;10.986;2022-07-01T01:51:29;98212.06;;;20.16;64.47
70815;BME280;58428;49.478;10.986;2022-07-01T01:53:55;98216.78;;;20.15;64.87
70815;BME280;58428;49.478;10.986;2022-07-01T01:56:20;98218.34;;;20.02;65.53
70815;BME280;58428;49.478;10.986;2022-07-01T01:58:46;98228.94;;;20.00;65.34
70815;BME280;58428;49.478;10.986;2022-07-01T02:01:12;98235.59;;;20.10;64.64
70815;BME280;58428;49.478;10.986;2022-07-01T02:03:39;98248.94;;;19.97;64.82
70815;BME280;58428;49.478;10.986;2022-07-01T02:06:06;98253.25;;;19.98;64.52
70815;BME280;58428;49.478;10.986;2022-07-01T02:08:31;98264.66;;;20.07;64.33
70815;BME280;58428;49.478;10.986;2022-07-01T02:10:58;98262.69;;;20.11;64.26
70815;BME280;58428;49.478;10.986;2022-07-01T02:13:24;98269.75;;;20.12;63.96
70815;BME280;58428;49.478;10.986;2022-07-01T02:15:50;98285.44;;;20.12;63.68
70815;BME280;58428;49.478;10.986;2022-07-01T02:18:15;98285.03;;;19.99;63.55
70815;BME280;58428;49.478;10.986;2022-07-01T02:20:41;98294.75;;;19.76;64.58
70815;BME280;58428;49.478;10.986;2022-07-01T02:23:08;98295.16;;;19.75;64.16
70815;BME280;58428;49.478;10.986;2022-07-01T02:25:34;98290.78;;;19.60;64.97
70815;BME280;58428;49.478;10.986;2022-07-01T02:28:12;98304.47;;;19.53;65.14
70815;BME280;58428;49.478;10.986;2022-07-01T02:30:45;98293.09;;;19.51;64.94
70815;BME280;58428;49.478;10.986;2022-07-01T02:33:14;98276.66;;;19.51;65.13
70815;BME280;58428;49.478;10.986;2022-07-01T02:35:53;98292.59;;;19.28;66.60
70815;BME280;58428;49.478;10.986;2022-07-01T02:38:24;98280.47;;;19.33;66.03
70815;BME280;58428;49.478;10.986;2022-07-01T02:40:52;98278.41;;;19.16;66.56
70815;BME280;58428;49.478;10.986;2022-07-01T02:43:21;98273.34;;;19.15;66.16
70815;BME280;58428;49.478;10.986;2022-07-01T02:45:56;98267.06;;;19.17;67.01
70815;BME280;58428;49.478;10.986;2022-07-01T02:48:32;98257.28;;;19.17;66.59
70815;BME280;58428;49.478;10.986;2022-07-01T02:50:57;98258.88;;;19.21;66.65
70815;BME280;58428;49.478;10.986;2022-07-01T02:53:32;98269.06;;;19.20;66.37
70815;BME280;58428;49.478;10.986;2022-07-01T02:55:57;98285.50;;;19.17;66.09
70815;BME280;58428;49.478;10.986;2022-07-01T02:58:23;98275.69;;;19.13;66.67
70815;BME280;58428;49.478;10.986;2022-07-01T03:00:49;98277.66;;;19.19;66.30
70815;BME280;58428;49.478;10.986;2022-07-01T03:03:17;98285.44;;;19.07;66.58
70815;BME280;58428;49.478;10.986;2022-07-01T03:05:43;98280.75;;;19.11;66.47
70815;BME280;58428;49.478;10.986;2022-07-01T03:08:08;98282.69;;;19.07;66.46
70815;BME280;58428;49.478;10.986;2022-07-01T03:10:33;98284.25;;;19.08;66.43
70815;BME280;58428;49.478;10.986;2022-07-01T03:12:59;98284.66;;;19.10;66.22
70815;BME280;58428;49.478;10.986;2022-07-01T03:15:27;98276.28;;;18.85;67.55
70815;BME280;58428;49.478;10.986;2022-07-01T03:17:55;98266.84;;;18.80;67.28
70815;BME280;58428;49.478;10.986;2022-07-01T03:20:21;98276.88;;;18.62;68.26
70815;BME280;58428;49.478;10.986;2022-07-01T03:22:48;98272.13;;;18.55;68.20
70815;BME280;58428;49.478;10.986;2022-07-01T03:25:17;98270.59;;;18.58;67.75
70815;BME280;58428;49.478;10.986;2022-07-01T03:27:43;98274.03;;;18.48;68.67
70815;BME280;58428;49.478;10.986;2022-07-01T03:30:13;98265.09;;;18.54;68.34
70815;BME280;58428;49.478;10.986;2022-07-01T03:32:40;98269.41;;;18.55;68.67
70815;BME280;58428;49.478;10.986;2022-07-01T03:35:05;98263.19;;;18.65;68.51
70815;BME280;58428;49.478;10.986;2022-07-01T03:37:54;98280.06;;;18.67;68.40
70815;BME280;58428;49.478;10.986;2022-07-01T03:40:20;98289.81;;;18.61;68.24
70815;BME280;58428;49.478;10.986;2022-07-01T03:42:46;98286.25;;;18.57;68.41
70815;BME280;58428;49.478;10.986;2022-07-01T03:45:11;98285.84;;;18.55;68.84
70815;BME280;58428;49.478;10.986;2022-07-01T03:47:45;98294.84;;;18.52;69.70
70815;BME280;58428;49.478;10.986;2022-07-01T03:50:12;98311.22;;;18.45;69.71
70815;BME280;58428;49.478;10.986;2022-07-01T03:52:37;98319.69;;;18.30;70.64
70815;BME280;58428;49.478;10.986;2022-07-01T03:55:03;98332.50;;;18.23;71.22
70815;BME280;58428;49.478;10.986;2022-07-01T03:57:32;98334.06;;;18.20;71.46
70815;BME280;58428;49.478;10.986;2022-07-01T04:00:00;98342.59;;;18.12;71.33
70815;BME280;58428;49.478;10.986;2022-07-01T04:02:26;98352.66;;;18.05;71.77
70815;BME280;58428;49.478;10.986;2022-07-01T04:04:51;98365.06;;;17.95;72.11
70815;BME280;58428;49.478;10.986;2022-07-01T04:07:17;98367.06;;;17.98;72.23
70815;BME280;58428;49.478;10.986;2022-07-01T04:09:45;98370.41;;;17.85;72.88
70815;BME280;58428;49.478;10.986;2022-07-01T04:12:20;98360.47;;;17.70;74.02
70815;BME280;58428;49.478;10.986;2022-07-01T04:14:46;98359.38;;;17.78;73.64
70815;BME280;58428;49.478;10.986;2022-07-01T04:17:11;98375.09;;;17.84;74.02
70815;BME280;58428;49.478;10.986;2022-07-01T04:19:37;98393.50;;;17.87;75.22
70815;BME280;58428;49.478;10.986;2022-07-01T04:22:10;98375.75;;;17.74;77.07
70815;BME280;58428;49.478;10.986;2022-07-01T04:24:54;98377.81;;;17.81;75.42
70815;BME280;58428;49.478;10.986;2022-07-01T04:27:20;98364.72;;;17.68;78.37
70815;BME280;58428;49.478;10.986;2022-07-01T04:29:46;98367.84;;;17.66;78.59
70815;BME280;58428;49.478;10.986;2022-07-01T04:32:12;98348.78;;;17.73;77.01
70815;BME280;58428;49.478;10.986;2022-07-01T04:34:37;98347.69;;;17.81;77.27
70815;BME280;58428;49.478;10.986;2022-07-01T04:37:03;98345.03;;;17.88;77.75
70815;BME280;58428;49.478;10.986;2022-07-01T04:39:28;98339.91;;;17.83;76.94
70815;BME280;58428;49.478;10.986;2022-07-01T04:41:54;98349.66;;;17.84;77.24
70815;BME280;58428;49.478;10.986;2022-07-01T04:44:26;98344.19;;;17.84;78.25
70815;BME280;58428;49.478;10.986;2022-07-01T04:46:52;98356.19;;;17.72;78.99
70815;BME280;58428;49.478;10.986;2022-07-01T04:49:17;98355.75;;;17.70;79.59
70815;BME280;58428;49.478;10.986;2022-07-01T04:51:43;98340.66;;;17.51;78.88
70815;BME280;58428;49.478;10.986;2022-07-01T04:54:08;98341.44;;;17.48;80.58
70815;BME280;58428;49.478;10.986;2022-07-01T04:56:35;98341.56;;;17.58;79.64
70815;BME280;58428;49.478;10.986;2022-07-01T04:59:01;98348.47;;;17.49;79.36
70815;BME280;58428;49.478;10.986;2022-07-01T05:01:27;98355.47;;;17.46;79.19
70815;BME280;58428;49.478;10.986;2022-07-01T05:03:56;98355.78;;;17.41;78.79
70815;BME280;58428;49.478;10.986;2022-07-01T05:06:21;98370.28;;;17.45;80.01
70815;BME280;58428;49.478;10.986;2022-07-01T05:08:46;98374.63;;;17.46;80.63
70815;BME280;58428;49.478;10.986;2022-07-01T05:11:12;98388.34;;;17.50;79.57
70815;BME280;58428;49.478;10.986;2022-07-01T05:13:38;98386.81;;;17.52;79.61
70815;BME280;58428;49.478;10.986;2022-07-01T05:16:03;98392.88;;;17.68;79.70
70815;BME280;58428;49.478;10.986;2022-07-01T05:18:29;98398.34;;;17.68;79.04
70815;BME280;58428;49.478;10.986;2022-07-01T05:21:15;98406.78;;;17.56;79.24
70815;BME280;58428;49.478;10.986;2022-07-01T05:23:59;98419.63;;;17.52;78.50
70815;BME280;58428;49.478;10.986;2022-07-01T05:26:24;98418.94;;;17.59;79.37
70815;BME280;58428;49.478;10.986;2022-07-01T05:28:51;98422.38;;;17.52;79.22
70815;BME280;58428;49.478;10.986;2022-07-01T05:31:17;98415.97;;;17.41;78.78
70815;BME280;58428;49.478;10.986;2022-07-01T05:33:42;98411.66;;;17.40;79.46
70815;BME280;58428;49.478;10.986;2022-07-01T05:36:08;98408.88;;;17.37;78.64
70815;BME280;58428;49.478;10.986;2022-07-01T05:38:34;98433.47;;;17.37;78.60
70815;BME280;58428;49.478;10.986;2022-07-01T05:40:59;98445.91;;;17.31;78.23
70815;BME280;58428;49.478;10.986;2022-07-01T05:43:25;98460.56;;;17.20;78.18
70815;BME280;58428;49.478;10.986;2022-07-01T05:45:50;98470.56;;;17.12;79.48
70815;BME280;58428;49.478;10.986;2022-07-01T05:48:16;98472.34;;;17.01;79.27
70815;BME280;58428;49.478;10.986;2022-07-01T05:50:41;98477.63;;;16.91;80.81
70815;BME280;58428;49.478;10.986;2022-07-01T05:53:06;98475.63;;;16.88;79.10
70815;BME280;58428;49.478;10.986;2022-07-01T05:55:32;98473.75;;;16.92;79.28
70815;BME280;58428;49.478;10.986;2022-07-01T05:57:57;98475.16;;;16.83;79.13
70815;BME280;58428;49.478;10.986;2022-07-01T06:00:23;98480.47;;;16.76;79.89
70815;BME280;58428;49.478;10.986;2022-07-01T06:02:49;98472.34;;;16.79;79.20
70815;BME280;58428;49.478;10.986;2022-07-01T06:05:14;98476.72;;;16.84;79.60
70815;BME280;58428;49.478;10.986;2022-07-01T06:07:40;98481.03;;;16.85;79.45
70815;BME280;58428;49.478;10.986;2022-07-01T06:10:07;98481.03;;;16.85;79.19
70815;BME280;58428;49.478;10.986;2022-07-01T06:12:33;98484.47;;;16.82;79.38
70815;BME280;58428;49.478;10.986;2022-07-01T06:14:58;98483.69;;;16.81;80.42
70815;BME280;58428;49.478;10.986;2022-07-01T06:17:24;98480.34;;;16.91;79.58
70815;BME280;58428;49.478;10.986;2022-07-01T06:19:49;98492.00;;;17.10;79.38
70815;BME280;58428;49.478;10.986;2022-07-01T06:22:14;98483.72;;;17.26;78.93
70815;BME280;58428;49.478;10.986;2022-07-01T06:24:42;98476.06;;;17.38;78.52
70815;BME280;58428;49.478;10.986;2022-07-01T06:27:10;98487.91;;;17.45;77.97
70815;BME280;58428;49.478;10.986;2022-07-01T06:29:35;98474.84;;;17.58;77.22
70815;BME280;58428;49.478;10.986;2022-07-01T06:32:00;98471.19;;;17.50;76.97
70815;BME280;58428;49.478;10.986;2022-07-01T06:34:26;98476.75;;;17.32;77.68
70815;BME280;58428;49.478;10.986;2022-07-01T06:36:51;98474.94;;;17.39;78.66
70815;BME280;58428;49.478;10.986;2022-07-01T06:39:17;98479.13;;;17.59;77.60
70815;BME280;58428;49.478;10.986;2022-07-01T06:41:43;98502.84;;;17.51;76.47
70815;BME280;58428;49.478;10.986;2022-07-01T06:44:09;98495.81;;;17.50;76.45
70815;BME280;58428;49.478;10.986;2022-07-01T06:46:35;98497.13;;;17.34;76.17
70815;BME280;58428;49.478;10.986;2022-07-01T06:49:00;98499.91;;;17.37;76.47
70815;BME280;58428;49.478;10.986;2022-07-01T06:51:26;98505.31;;;17.34;76.30
70815;BME280;58428;49.478;10.986;2022-07-01T06:53:52;98508.97;;;17.41;76.79
70815;BME280;58428;49.478;10.986;2022-07-01T06:56:18;98519.69;;;17.28;76.25
70815;BME280;58428;49.478;10.986;2022-07-01T06:58:43;98521.88;;;17.19;76.08
70815;BME280;58428;49.478;10.986;2022-07-01T07:01:09;98517.28;;;17.23;76.42
70815;BME280;58428;49.478;10.986;2022-07-01T07:03:35;98524.78;;;17.29;76.33
70815;BME280;58428;49.478;10.986;2022-07-01T07:06:01;98524.09;;;17.35;76.24
70815;BME280;58428;49.478;10.986;2022-07-01T07:08:30;98524.38;;;17.27;76.20
70815;BME280;58428;49.478;10.986;2022-07-01T07:10:55;98526.41;;;17.33;75.89
70815;BME280;58428;49.478;10.986;2022-07-01T07:13:21;98526.16;;;17.42;76.36
70815;BME280;58428;49.478;10.986;2022-07-01T07:15:46;98533.56;;;17.41;75.98
70815;BME280;58428;49.478;10.986;2022-07-01T07:18:12;98533.22;;;17.43;75.60
70815;BME280;58428;49.478;10.986;2022-07-01T07:20:38;98533.56;;;17.41;75.23
70815;BME280;58428;49.478;10.986;2022-07-01T07:23:03;98540.09;;;17.33;75.21
70815;BME280;58428;49.478;10.986;2022-07-01T07:25:28;98535.25;;;17.05;76.03
70815;BME280;58428;49.478;10.986;2022-07-01T07:27:54;98545.50;;;17.08;75.67
70815;BME280;58428;49.478;10.986;2022-07-01T07:30:20;98550.28;;;16.92;76.17
70815;BME280;58428;49.478;10.986;2022-07-01T07:32:45;98559.00;;;16.79;76.22
70815;BME280;58428;49.478;10.986;2022-07-01T07:35:11;98563.47;;;16.68;76.14
70815;BME280;58428;49.478;10.986;2022-07-01T07:37:37;98568.66;;;16.73;76.27
70815;BME280;58428;49.478;10.986;2022-07-01T07:40:03;98573.34;;;16.72;76.73
70815;BME280;58428;49.478;10.986;2022-07-01T07:42:29;98570.78;;;16.83;76.17
70815;BME280;58428;49.478;10.986;2022-07-01T07:44:54;98547.97;;;16.94;75.85
70815;BME280;58428;49.478;10.986;2022-07-01T07:47:20;98554.38;;;17.01;75.07
70815;BME280;58428;49.478;10.986;2022-07-01T07:49:45;98548.91;;;17.01;74.70
70815;BME280;58428;49.478;10.986;2022-07-01T07:52:11;98557.19;;;17.08;74.92
70815;BME280;58428;49.478;10.986;2022-07-01T07:54:37;98551.22;;;17.22;74.54
70815;BME280;58428;49.478;10.986;2022-07-01T07:57:02;98557.25;;;17.31;74.02
70815;BME280;58428;49.478;10.986;2022-07-01T07:59:28;98564.44;;;17.42;73.21
70815;BME280;58428;49.478;10.986;2022-07-01T08:01:53;98555.59;;;17.48;72.99
70815;BME280;58428;49.478;10.986;2022-07-01T08:04:19;98558.19;;;17.41;73.05
70815;BME280;58428;49.478;10.986;2022-07-01T08:06:45;98562.47;;;17.39;72.53
70815;BME280;58428;49.478;10.986;2022-07-01T08:09:10;98569.03;;;17.34;72.65
70815;BME280;58428;49.478;10.986;2022-07-01T08:11:35;98568.22;;;17.34;72.67
70815;BME280;58428;49.478;10.986;2022-07-01T08:14:01;98576.31;;;17.27;73.07
70815;BME280;58428;49.478;10.986;2022-07-01T08:16:26;98574.44;;;17.31;73.01
70815;BME280;58428;49.478;10.986;2022-07-01T08:18:52;98579.72;;;17.43;72.94
70815;BME280;58428;49.478;10.986;2022-07-01T08:21:17;98578.66;;;17.06;73.46
70815;BME280;58428;49.478;10.986;2022-07-01T08:23:42;98588.81;;;17.06;73.89
70815;BME280;58428;49.478;10.986;2022-07-01T08:26:08;98590.00;;;17.08;74.09
70815;BME280;58428;49.478;10.986;2022-07-01T08:28:33;98595.03;;;17.25;74.63
70815;BME280;58428;49.478;10.986;2022-07-01T08:31:02;98593.34;;;17.17;73.83
70815;BME280;58428;49.478;10.986;2022-07-01T08:33:28;98598.06;;;17.20;74.24
70815;BME280;58428;49.478;10.986;2022-07-01T08:35:54;98608.47;;;17.33;73.62
70815;BME280;58428;49.478;10.986;2022-07-01T08:38:19;98607.69;;;17.14;73.61
70815;BME280;58428;49.478;10.986;2022-07-01T08:40:45;98605.25;;;17.28;74.55
70815;BME280;58428;49.478;10.986;2022-07-01T08:43:10;98612.41;;;17.58;74.78
70815;BME280;58428;49.478;10.986;2022-07-01T08:45:36;98617.34;;;17.71;73.90
70815;BME280;58428;49.478;10.986;2022-07-01T08:48:03;98621.34;;;17.77;73.42
70815;BME280;58428;49.478;10.986;2022-07-01T08:50:31;98636.72;;;17.63;73.46
70815;BME280;58428;49.478;10.986;2022-07-01T08:52:57;98637.03;;;17.58;73.32
70815;BME280;58428;49.478;10.986;2022-07-01T08:55:23;98635.41;;;17.54;73.41
70815;BME280;58428;49.478;10.986;2022-07-01T08:57:49;98634.31;;;17.58;72.82
70815;BME280;58428;49.478;10.986;2022-07-01T09:00:16;98648.00;;;17.58;73.74
70815;BME280;58428;49.478;10.986;2022-07-01T09:05:23;98643.84;;;17.45;73.86
70815;BME280;58428;49.478;10.986;2022-07-01T09:07:55;98643.13;;;17.48;73.53
70815;BME280;58428;49.478;10.986;2022-07-01T09:10:21;98647.44;;;17.49;73.18
70815;BME280;58428;49.478;10.986;2022-07-01T09:12:47;98654.91;;;17.52;73.28
70815;BME280;58428;49.478;10.986;2022-07-01T09:15:33;98658.31;;;17.68;73.45
70815;BME280;58428;49.478;10.986;2022-07-01T09:18:05;98663.84;;;17.71;73.30
70815;BME280;58428;49.478;10.986;2022-07-01T09:20:34;98669.25;;;17.68;73.37
70815;BME280;58428;49.478;10.986;2022-07-01T09:23:07;98674.47;;;17.76;72.52
70815;BME280;58428;49.478;10.986;2022-07-01T09:25:53;98679.22;;;17.57;72.96
70815;BME280;58428;49.478;10.986;2022-07-01T09:28:20;98678.69;;;17.48;73.49
70815;BME280;58428;49.478;10.986;2022-07-01T09:30:54;98677.06;;;17.44;73.50
70815;BME280;58428;49.478;10.986;2022-07-01T09:33:24;98668.97;;;17.51;73.53
70815;BME280;58428;49.478;10.986;2022-07-01T09:35:54;98677.66;;;17.56;73.42
70815;BME280;58428;49.478;10.986;2022-07-01T09:38:22;98680.59;;;17.26;73.66
70815;BME280;58428;49.478;10.986;2022-07-01T09:43:27;98681.25;;;17.60;73.72
70815;BME280;58428;49.478;10.986;2022-07-01T09:48:25;98671.94;;;17.87;73.20
70815;BME280;58428;49.478;10.986;2022-07-01T09:50:51;98663.34;;;17.88;72.23
70815;BME280;58428;49.478;10.986;2022-07-01T09:53:17;98677.66;;;17.78;71.75
70815;BME280;58428;49.478;10.986;2022-07-01T09:55:43;98669.41;;;17.75;72.60
70815;BME280;58428;49.478;10.986;2022-07-01T09:58:09;98662.41;;;18.03;72.01
70815;BME280;58428;49.478;10.986;2022-07-01T10:00:36;98665.25;;;18.32;72.41
70815;BME280;58428;49.478;10.986;2022-07-01T10:03:03;98658.53;;;18.55;71.00
70815;BME280;58428;49.478;10.986;2022-07-01T10:05:31;98654.31;;;18.94;71.41
70815;BME280;58428;49.478;10.986;2022-07-01T10:08:25;98665.84;;;19.06;69.90
70815;BME280;58428;49.478;10.986;2022-07-01T10:13:47;98651.47;;;19.16;68.75
70815;BME280;58428;49.478;10.986;2022-07-01T10:16:13;98650.91;;;19.36;68.25
70815;BME280;58428;49.478;10.986;2022-07-01T10:18:39;98659.06;;;19.29;67.86
70815;BME280;58428;49.478;10.986;2022-07-01T10:21:05;98664.22;;;19.34;67.33
70815;BME280;58428;49.478;10.986;2022-07-01T10:23:42;98665.59;;;19.18;67.61
70815;BME280;58428;49.478;10.986;2022-07-01T10:26:08;98672.47;;;19.02;67.69
70815;BME280;58428;49.478;10.986;2022-07-01T10:31:08;98679.66;;;18.84;68.51
70815;BME280;58428;49.478;10.986;2022-07-01T10:33:55;98682.81;;;18.86;67.80
70815;BME280;58428;49.478;10.986;2022-07-01T10:36:27;98671.91;;;18.60;68.10
70815;BME280;58428;49.478;10.986;2022-07-01T10:41:56;98694.72;;;18.42;68.79
70815;BME280;58428;49.478;10.986;2022-07-01T10:44:24;98699.63;;;18.55;69.17
70815;BME280;58428;49.478;10.986;2022-07-01T10:46:51;98699.84;;;18.43;69.65
70815;BME280;58428;49.478;10.986;2022-07-01T10:52:11;98718.03;;;18.29;69.38
70815;BME280;58428;49.478;10.986;2022-07-01T10:59:50;98745.81;;;17.65;70.88
70815;BME280;58428;49.478;10.986;2022-07-01T11:02:22;98750.56;;;17.27;71.71
70815;BME280;58428;49.478;10.986;2022-07-01T11:04:49;98748.84;;;16.85;73.54
70815;BME280;58428;49.478;10.986;2022-07-01T11:07:15;98752.72;;;16.65;74.25
70815;BME280;58428;49.478;10.986;2022-07-01T11:09:41;98754.53;;;16.76;73.92
70815;BME280;58428;49.478;10.986;2022-07-01T11:12:06;98754.53;;;16.76;74.81
70815;BME280;58428;49.478;10.986;2022-07-01T11:14:37;98742.75;;;16.72;73.96
70815;BME280;58428;49.478;10.986;2022-07-01T11:17:03;98745.34;;;16.84;74.32
70815;BME280;58428;49.478;10.986;2022-07-01T11:19:29;98759.34;;;16.83;74.71
70815;BME280;58428;49.478;10.986;2022-07-01T11:21:54;98762.78;;;16.80;75.24
70815;BME280;58428;49.478;10.986;2022-07-01T11:24:21;98766.41;;;16.84;73.80
70815;BME280;58428;49.478;10.986;2022-07-01T11:26:47;98761.66;;;16.81;74.38
70815;BME280;58428;49.478;10.986;2022-07-01T11:29:13;98756.72;;;16.86;74.63
70815;BME280;58428;49.478;10.986;2022-07-01T11:31:39;98740.16;;;16.79;74.24
70815;BME280;58428;49.478;10.986;2022-07-01T11:34:05;98749.06;;;16.95;74.30
70815;BME280;58428;49.478;10.986;2022-07-01T11:36:32;98760.59;;;17.04;74.18
70815;BME280;58428;49.478;10.986;2022-07-01T11:39:18;98765.31;;;17.22;74.53
70815;BME280;58428;49.478;10.986;2022-07-01T11:41:56;98763.94;;;17.32;74.26
70815;BME280;58428;49.478;10.986;2022-07-01T11:44:42;98763.00;;;17.24;73.48
70815;BME280;58428;49.478;10.986;2022-07-01T11:47:12;98768.22;;;17.14;74.91
70815;BME280;58428;49.478;10.986;2022-07-01T11:49:45;98767.00;;;17.11;74.53
70815;BME280;58428;49.478;10.986;2022-07-01T11:52:12;98761.34;;;17.20;74.08
70815;BME280;58428;49.478;10.986;2022-07-01T11:54:39;98763.19;;;16.97;73.79
70815;BME280;58428;49.478;10.986;2022-07-01T11:59:34;98758.72;;;17.08;73.62
70815;BME280;58428;49.478;10.986;2022-07-01T12:02:01;98759.94;;;17.10;73.64
70815;BME280;58428;49.478;10.986;2022-07-01T12:04:27;98758.63;;;17.20;74.13
70815;BME280;58428;49.478;10.986;2022-07-01T12:06:54;98765.78;;;17.09;73.18
70815;BME280;58428;49.478;10.986;2022-07-01T12:09:20;98770.06;;;17.25;73.50
70815;BME280;58428;49.478;10.986;2022-07-01T12:11:49;98773.94;;;17.24;73.32
70815;BME280;58428;49.478;10.986;2022-07-01T12:14:30;98776.81;;;17.50;73.27
70815;BME280;58428;49.478;10.986;2022-07-01T12:16:58;98765.72;;;17.62;73.36
70815;BME280;58428;49.478;10.986;2022-07-01T12:22:05;98751.38;;;17.49;73.04
70815;BME280;58428;49.478;10.986;2022-07-01T12:24:30;98757.81;;;17.38;72.05
70815;BME280;58428;49.478;10.986;2022-07-01T12:29:26;98750.53;;;17.08;72.17
70815;BME280;58428;49.478;10.986;2022-07-01T12:32:03;98737.53;;;17.01;72.83
70815;BME280;58428;49.478;10.986;2022-07-01T12:34:43;98734.47;;;17.06;73.08
70815;BME280;58428;49.478;10.986;2022-07-01T12:37:30;98740.19;;;17.35;72.94
70815;BME280;58428;49.478;10.986;2022-07-01T12:39:58;98742.41;;;17.49;72.64
70815;BME280;58428;49.478;10.986;2022-07-01T12:44:55;98732.19;;;17.46;71.58
70815;BME280;58428;49.478;10.986;2022-07-01T12:47:28;98746.50;;;17.39;71.22
70815;BME280;58428;49.478;10.986;2022-07-01T12:52:39;98769.38;;;17.13;71.65
70815;BME280;58428;49.478;10.986;2022-07-01T12:55:19;98762.88;;;16.83;72.65
70815;BME280;58428;49.478;10.986;2022-07-01T12:57:52;98765.94;;;16.63;73.63
70815;BME280;58428;49.478;10.986;2022-07-01T13:00:19;98794.59;;;16.54;74.84
70815;BME280;58428;49.478;10.986;2022-07-01T13:02:45;98811.25;;;16.49;74.92
70815;BME280;58428;49.478;10.986;2022-07-01T13:05:12;98822.38;;;16.25;75.72
70815;BME280;58428;49.478;10.986;2022-07-01T13:07:38;98822.88;;;16.15;76.39
70815;BME280;58428;49.478;10.986;2022-07-01T13:10:03;98835.56;;;16.23;77.92
70815;BME280;58428;49.478;10.986;2022-07-01T13:12:32;98835.31;;;16.28;77.65
70815;BME280;58428;49.478;10.986;2022-07-01T13:14:57;98854.94;;;16.33;76.64
70815;BME280;58428;49.478;10.986;2022-07-01T13:17:23;98854.59;;;16.20;77.04
70815;BME280;58428;49.478;10.986;2022-07-01T13:19:48;98869.44;;;16.07;77.02
70815;BME280;58428;49.478;10.986;2022-07-01T13:22:14;98871.75;;;15.78;78.24
70815;BME280;58428;49.478;10.986;2022-07-01T13:24:39;98847.94;;;15.90;77.54
70815;BME280;58428;49.478;10.986;2022-07-01T13:27:04;98840.25;;;15.80;nan
70815;BME280;58428;49.478;10.986;2022-07-01T13:29:30;98845.53;;;15.88;79.29